PHLI Airport Information

Runway Information
Runway 03 Length 6500 ft width 150 ft
Elevation 153 ft Threshold 0 ft Heading 45
Runway 21 Length 6500 ft Width 150 ft
Elevation 83 ft Threshold 205 ft Heading 225
Runway 17 Length 6500 ft width 150 ft
Elevation 92 ft Threshold 0 ft Heading 180
Runway 35 Length 6500 ft Width 150 ft
Elevation 92 ft Threshold 0 ft Heading 360
Airport Frequencies
Type ATIS Name ATIS Frequency 127.2 MHZ
Type CNTR Name HONOLULU C Frequency 126.5 MHZ
Type CTAF Name CTAF Frequency 118.9 MHZ
Type GND Name GND Frequency 121.9 MHZ
Type RCO Name HONOLULU Frequency 122.6 MHZ
Type TWR Name TWR Frequency 118.9 MHZ
Airport Navaids
Type VORTAC Name Lihue Frequency 113500 KHZ
Airport Weather Information & NOTAM
ADDS - METARS form results

(1008 UTC 26 November 2020)
Data provider http://aviationweather.gov/metar/data/
 
METAR text: PHLI 260953Z AUTO 07009KT 10SM FEW020 SCT055 SCT090 25/23 A3012 RMK AO2 SLP195 T02500228 402830233 TSNO
Conditions at: PHLI (LIHUE/KAUAI IS , HI, US) observed 0953 UTC 26 November 2020
Temperature: 25.0°C (77°F)
Dewpoint: 22.8°C (73°F) [RH = 88%]
Pressure (altimeter): 30.12 inches Hg (1020.1 mb)
[Sea-level pressure: 1019.5 mb]
Winds: from the ENE (70 degrees) at 10 MPH (9 knots; 4.6 m/s)
Visibility: 10 or more miles (16+ km)
Ceiling: at least 12,000 feet AGL
Clouds: few clouds at 2000 feet AGL
scattered clouds at 5500 feet AGL
scattered clouds at 9000 feet AGL
Weather: automated observation with no human augmentation;
there may or may not be significant weather present at this time

METAR text: PHLI 260939Z AUTO 06010KT 10SM SCT024 SCT035 BKN065 25/23 A3012 RMK AO2 T02500228 TSNO
Conditions at: PHLI (LIHUE/KAUAI IS , HI, US) observed 0939 UTC 26 November 2020
Temperature: 25.0°C (77°F)
Dewpoint: 22.8°C (73°F) [RH = 88%]
Pressure (altimeter): 30.12 inches Hg (1020.1 mb)
Winds: from the ENE (60 degrees) at 12 MPH (10 knots; 5.1 m/s)
Visibility: 10 or more miles (16+ km)
Ceiling: 6500 feet AGL
Clouds: scattered clouds at 2400 feet AGL
scattered clouds at 3500 feet AGL
broken clouds at 6500 feet AGL
Weather: automated observation with no human augmentation;
there may or may not be significant weather present at this time

METAR text: PHLI 260923Z AUTO 06009KT 10SM SCT020 BKN029 BKN036 25/23 A3012 RMK AO2 T02500228 TSNO
Conditions at: PHLI (LIHUE/KAUAI IS , HI, US) observed 0923 UTC 26 November 2020
Temperature: 25.0°C (77°F)
Dewpoint: 22.8°C (73°F) [RH = 88%]
Pressure (altimeter): 30.12 inches Hg (1020.1 mb)
Winds: from the ENE (60 degrees) at 10 MPH (9 knots; 4.6 m/s)
Visibility: 10 or more miles (16+ km)
Ceiling: 2900 feet AGL
Clouds: scattered clouds at 2000 feet AGL
broken clouds at 2900 feet AGL
broken clouds at 3600 feet AGL
Weather: automated observation with no human augmentation;
there may or may not be significant weather present at this time

Forecast for: PHLI (LIHUE/KAUAI IS , HI, US)
Text: PHLI 260538Z 2606/2706 06014KT P6SM VCSH SCT025 BKN040
Forecast period: 0600 UTC 26 November 2020 to 0600 UTC 27 November 2020
Forecast type: FROM: standard forecast or significant change
Winds: from the ENE (60 degrees) at 16 MPH (14 knots; 7.2 m/s)
Visibility: 6 or more miles (10+ km)
Ceiling: 4000 feet AGL
Clouds: scattered clouds at 2500 feet AGL
broken clouds at 4000 feet AGL
Weather: VCSH  (showers in vicinity)
Text: TEMPO 2606/2610 -SHRA BKN025
Forecast period: 0600 to 1000 UTC 26 November 2020
Forecast type: TEMPORARY: The following changes expected for less than half the time period
Visibility: missing
Ceiling: 2500 feet AGL
Clouds: broken clouds at 2500 feet AGL
Weather: -SHRA  (light rain showers)